Time;durP1;ratioP1;P1;durP2;ratioP2;P2;SDS_P1;SDS_P2;PMS_P1;PMS_P2;Temp;Humidity;BMP_temperature;BMP_pressure;BME280_temperature;BME280_humidity;BME280_pressure;Samples;Min_cycle;Max_cycle;Signal;HPM_P1;HPM_P2
2022/08/07 00:02:22;;;;;;;6.55;5.22;;;28.70;91.10;;;;;;5053410;28;20174;-71
2022/08/07 00:04:49;;;;;;;8.20;5.60;;;28.70;91.00;;;;;;5055547;28;20132;-70
2022/08/07 00:07:17;;;;;;;8.23;5.30;;;28.60;91.10;;;;;;5073630;28;20044;-70
2022/08/07 00:09:45;;;;;;;9.82;6.50;;;28.60;91.30;;;;;;5055956;28;20127;-73
2022/08/07 00:12:20;;;;;;;6.28;5.32;;;28.60;91.50;;;;;;5038755;28;20056;-70
2022/08/07 00:14:48;;;;;;;7.18;5.65;;;28.60;91.50;;;;;;5055456;28;20066;-70
2022/08/07 00:17:15;;;;;;;6.95;5.68;;;28.60;91.60;;;;;;5073089;28;20051;-71
2022/08/07 00:19:44;;;;;;;8.38;5.72;;;28.60;91.70;;;;;;5038807;28;20113;-70
2022/08/07 00:22:12;;;;;;;12.15;5.68;;;28.50;91.80;;;;;;5038672;28;20143;-70
2022/08/07 00:24:39;;;;;;;7.70;5.78;;;28.50;91.90;;;;;;5038550;28;20510;-71
2022/08/07 00:27:07;;;;;;;10.38;5.60;;;28.50;92.10;;;;;;5072908;28;20118;-73
2022/08/07 00:29:34;;;;;;;8.90;5.85;;;28.40;92.20;;;;;;5055189;28;20044;-70
2022/08/07 00:32:02;;;;;;;10.75;6.25;;;28.50;92.40;;;;;;5055190;28;20143;-70
2022/08/07 00:34:30;;;;;;;7.95;5.70;;;28.50;92.50;;;;;;5055383;28;20102;-71
2022/08/07 00:36:57;;;;;;;7.80;4.68;;;28.50;92.70;;;;;;5038711;28;20056;-71
2022/08/07 00:39:25;;;;;;;14.73;5.32;;;28.40;92.80;;;;;;5055070;28;20098;-70
2022/08/07 00:41:57;;;;;;;6.13;5.20;;;28.40;93.00;;;;;;5055121;28;20037;-70
2022/08/07 00:44:26;;;;;;;8.45;4.88;;;28.40;93.10;;;;;;5055316;28;20403;-71
2022/08/07 00:46:54;;;;;;;8.40;4.88;;;28.40;93.20;;;;;;5038501;28;20146;-70
2022/08/07 00:49:21;;;;;;;8.80;4.63;;;28.40;93.30;;;;;;5029515;28;20067;-72
2022/08/07 00:51:49;;;;;;;8.60;5.22;;;28.40;93.40;;;;;;5040586;28;20040;-70
2022/08/07 00:54:17;;;;;;;8.45;5.78;;;28.30;93.50;;;;;;5074894;28;20047;-70
2022/08/07 00:56:45;;;;;;;6.93;4.60;;;28.40;93.60;;;;;;5074581;28;20187;-70
2022/08/07 00:59:12;;;;;;;7.65;4.88;;;28.30;93.70;;;;;;5074682;28;20046;-71
2022/08/07 01:01:40;;;;;;;6.53;4.35;;;28.30;93.80;;;;;;5074473;28;20043;-71
2022/08/07 01:04:08;;;;;;;7.82;5.72;;;28.30;93.80;;;;;;5057913;28;20550;-71
2022/08/07 01:06:36;;;;;;;8.43;4.63;;;28.30;94.00;;;;;;5074667;28;20044;-71
2022/08/07 01:09:03;;;;;;;5.55;4.70;;;28.20;94.00;;;;;;5074151;28;20067;-71
2022/08/07 01:11:32;;;;;;;8.45;5.68;;;28.20;94.10;;;;;;5092554;28;20074;-70
2022/08/07 01:14:00;;;;;;;8.40;4.47;;;28.20;94.30;;;;;;5057386;28;20138;-70
2022/08/07 01:16:30;;;;;;;6.38;4.78;;;28.20;94.50;;;;;;5074478;28;20059;-71
2022/08/07 01:18:59;;;;;;;6.90;4.05;;;28.20;94.70;;;;;;5041645;28;20137;-70
2022/08/07 01:21:27;;;;;;;6.50;4.40;;;28.10;94.80;;;;;;5057852;28;20044;-71
2022/08/07 01:23:58;;;;;;;6.15;4.25;;;28.10;94.80;;;;;;5057693;28;20040;-71
2022/08/07 01:26:27;;;;;;;9.73;4.97;;;28.10;94.80;;;;;;5041053;28;20113;-72
2022/08/07 01:28:55;;;;;;;7.18;4.55;;;28.10;94.70;;;;;;5057808;28;20077;-70
2022/08/07 01:31:30;;;;;;;6.72;4.95;;;28.10;94.70;;;;;;5041935;28;20048;-70
2022/08/07 01:34:01;;;;;;;8.02;5.03;;;28.10;94.60;;;;;;5073836;28;20064;-71
2022/08/07 01:36:33;;;;;;;8.45;5.38;;;28.00;94.60;;;;;;5041714;28;20056;-71
2022/08/07 01:39:06;;;;;;;7.40;4.20;;;28.00;94.60;;;;;;5058308;28;20046;-71
2022/08/07 01:41:35;;;;;;;5.28;4.18;;;28.00;94.60;;;;;;5057072;28;20040;-71
2022/08/07 01:44:04;;;;;;;7.30;4.75;;;28.00;94.50;;;;;;5040668;28;20066;-71
2022/08/07 01:46:35;;;;;;;8.20;5.15;;;28.10;94.40;;;;;;5041245;28;20145;-70
2022/08/07 01:49:02;;;;;;;12.52;4.40;;;28.00;94.20;;;;;;5073863;28;20040;-70
2022/08/07 01:51:32;;;;;;;9.60;4.40;;;28.00;94.10;;;;;;5073469;28;20093;-71
2022/08/07 01:54:02;;;;;;;11.07;4.70;;;28.00;94.00;;;;;;5040733;28;20105;-72
2022/08/07 01:57:01;;;;;;;7.80;4.68;;;28.00;93.90;;;;;;5057384;28;20555;-72
2022/08/07 01:59:39;;;;;;;8.73;4.35;;;28.00;93.90;;;;;;5073430;28;20043;-72
2022/08/07 02:02:37;;;;;;;7.70;4.28;;;28.00;93.80;;;;;;5056119;28;20094;-70
2022/08/07 02:05:10;;;;;;;6.15;4.07;;;28.00;93.70;;;;;;5040709;28;20067;-72
2022/08/07 02:08:00;;;;;;;7.15;4.47;;;28.00;93.60;;;;;;5073628;28;20119;-72
2022/08/07 02:10:35;;;;;;;6.25;4.32;;;28.00;93.50;;;;;;5041116;28;20052;-73
2022/08/07 02:13:05;;;;;;;6.93;4.57;;;28.00;93.40;;;;;;5040072;28;20101;-72
2022/08/07 02:15:40;;;;;;;5.53;4.43;;;28.10;93.40;;;;;;5056650;28;20405;-71
2022/08/07 02:18:12;;;;;;;7.30;3.90;;;28.00;93.30;;;;;;5039320;28;20052;-71
2022/08/07 02:20:42;;;;;;;7.28;4.18;;;28.00;93.30;;;;;;5073351;28;20078;-72
2022/08/07 02:23:12;;;;;;;7.00;4.75;;;28.00;93.30;;;;;;5073266;28;20081;-71
2022/08/07 02:25:42;;;;;;;6.15;4.43;;;27.90;93.40;;;;;;5056268;28;20071;-71
2022/08/07 02:28:13;;;;;;;6.13;3.85;;;28.00;93.40;;;;;;5056720;28;20036;-71
2022/08/07 02:30:42;;;;;;;10.23;4.43;;;27.90;93.40;;;;;;5040109;28;20047;-73
2022/08/07 02:33:11;;;;;;;6.20;4.35;;;28.00;93.40;;;;;;5056458;28;20036;-71
2022/08/07 02:35:40;;;;;;;6.63;4.10;;;28.00;93.30;;;;;;5090936;28;20098;-72
2022/08/07 02:38:11;;;;;;;9.00;4.47;;;28.00;93.30;;;;;;5056020;28;20076;-72
2022/08/07 02:40:39;;;;;;;5.90;4.88;;;28.00;93.40;;;;;;5056370;28;20544;-71
2022/08/07 02:43:08;;;;;;;6.38;4.13;;;28.00;93.40;;;;;;5039861;28;20055;-71
2022/08/07 02:45:41;;;;;;;7.18;4.72;;;28.00;93.50;;;;;;5039881;28;20465;-74
2022/08/07 02:48:09;;;;;;;6.55;3.97;;;27.90;93.50;;;;;;5072618;28;20110;-73
2022/08/07 02:50:43;;;;;;;5.80;4.13;;;27.90;93.50;;;;;;5039974;28;20056;-72
2022/08/07 02:53:17;;;;;;;8.10;5.28;;;27.90;93.60;;;;;;5056315;28;20378;-72
2022/08/07 02:55:47;;;;;;;8.27;4.07;;;27.90;93.70;;;;;;5039737;28;20051;-71
2022/08/07 02:58:21;;;;;;;6.43;5.00;;;27.90;93.70;;;;;;5039522;28;20075;-72
2022/08/07 03:00:53;;;;;;;5.53;4.32;;;27.90;93.80;;;;;;5038074;28;20131;-73
2022/08/07 03:03:24;;;;;;;7.53;5.05;;;27.90;93.80;;;;;;5072520;28;20097;-73
2022/08/07 03:05:55;;;;;;;7.75;5.18;;;27.90;93.80;;;;;;5039605;28;20086;-71
2022/08/07 03:08:23;;;;;;;7.25;4.80;;;27.90;93.80;;;;;;5055469;28;20051;-72
2022/08/07 03:10:54;;;;;;;8.45;5.15;;;27.90;93.90;;;;;;5056100;28;20410;-71
2022/08/07 03:13:28;;;;;;;6.53;4.82;;;27.90;93.90;;;;;;5072676;28;20058;-71
2022/08/07 03:15:56;;;;;;;8.27;4.32;;;27.90;94.00;;;;;;5042935;28;20044;-71
2022/08/07 03:18:26;;;;;;;7.28;4.63;;;27.80;94.00;;;;;;5060264;28;20091;-71
2022/08/07 03:20:55;;;;;;;8.93;4.60;;;27.80;94.10;;;;;;5059188;28;20052;-71
2022/08/07 03:23:25;;;;;;;6.88;4.68;;;27.90;94.20;;;;;;5059494;28;20567;-73
2022/08/07 03:25:56;;;;;;;7.13;5.22;;;27.90;94.20;;;;;;5075969;28;20051;-73
2022/08/07 03:28:25;;;;;;;10.98;4.45;;;27.90;94.20;;;;;;5060103;28;20071;-74
2022/08/07 03:31:17;;;;;;;7.30;5.00;;;27.90;94.20;;;;;;5060071;28;20398;-72
2022/08/07 03:33:43;;;;;;;5.75;4.60;;;27.90;94.20;;;;;;5059568;28;20044;-72
2022/08/07 03:36:15;;;;;;;6.70;4.90;;;27.80;94.20;;;;;;5042680;28;20055;-72
2022/08/07 03:38:44;;;;;;;8.15;4.70;;;27.80;94.20;;;;;;5059399;28;20040;-70
2022/08/07 03:41:14;;;;;;;8.55;4.97;;;27.90;94.30;;;;;;5076614;28;20055;-72
2022/08/07 03:43:42;;;;;;;6.82;4.55;;;27.80;94.20;;;;;;5059682;28;20075;-71
2022/08/07 03:46:12;;;;;;;7.70;4.65;;;27.80;94.20;;;;;;5042998;28;20047;-71
2022/08/07 03:48:41;;;;;;;7.32;6.00;;;27.80;94.30;;;;;;5042900;28;20052;-71
2022/08/07 03:51:10;;;;;;;10.52;4.90;;;27.80;94.50;;;;;;5043163;28;20079;-73
2022/08/07 03:53:40;;;;;;;9.63;5.72;;;27.80;94.60;;;;;;5042985;28;20056;-73
2022/08/07 03:56:09;;;;;;;10.85;5.25;;;27.80;94.70;;;;;;5075675;28;20943;-72
2022/08/07 03:58:39;;;;;;;7.95;4.90;;;27.90;94.90;;;;;;5043334;28;20139;-72
2022/08/07 04:01:09;;;;;;;5.65;5.05;;;27.90;94.90;;;;;;5042974;28;20048;-71
2022/08/07 04:03:39;;;;;;;5.95;5.25;;;27.90;95.00;;;;;;5059050;28;20048;-71
2022/08/07 04:06:10;;;;;;;6.72;5.38;;;27.90;95.00;;;;;;5059089;28;20040;-71
2022/08/07 04:08:40;;;;;;;8.32;5.38;;;28.00;95.00;;;;;;5059205;28;20036;-71
2022/08/07 04:11:10;;;;;;;6.22;4.22;;;28.00;95.00;;;;;;5059159;28;20044;-71
2022/08/07 04:13:43;;;;;;;6.03;4.90;;;28.00;95.10;;;;;;5075549;28;20061;-73
2022/08/07 04:16:13;;;;;;;10.50;5.75;;;28.00;95.20;;;;;;5058610;28;20036;-73
2022/08/07 04:18:41;;;;;;;7.15;5.53;;;28.00;95.20;;;;;;5042497;28;20405;-73
2022/08/07 04:21:09;;;;;;;9.75;5.50;;;28.00;95.30;;;;;;5059178;28;20055;-71
2022/08/07 04:23:37;;;;;;;7.40;5.78;;;28.00;95.30;;;;;;5058720;28;20048;-72
2022/08/07 04:26:08;;;;;;;10.27;5.05;;;28.10;95.30;;;;;;5058274;28;20060;-72
2022/08/07 04:28:36;;;;;;;7.63;5.75;;;28.10;95.30;;;;;;5058840;28;20040;-72
2022/08/07 04:31:04;;;;;;;7.40;5.78;;;28.20;95.30;;;;;;5075364;28;20123;-74
2022/08/07 04:33:35;;;;;;;6.13;4.90;;;28.20;95.20;;;;;;5042100;28;20048;-71
2022/08/07 04:36:04;;;;;;;6.03;5.10;;;28.30;95.40;;;;;;5059150;28;20044;-71
2022/08/07 04:38:32;;;;;;;6.90;5.18;;;28.40;95.20;;;;;;5075242;28;20118;-71
2022/08/07 04:41:01;;;;;;;9.43;4.82;;;28.40;95.10;;;;;;5058010;28;20059;-71
2022/08/07 04:43:44;;;;;;;11.57;5.32;;;28.50;95.00;;;;;;5043882;28;20402;-70
2022/08/07 04:46:28;;;;;;;9.00;5.75;;;28.60;94.90;;;;;;5042205;28;20075;-71
2022/08/07 04:49:00;;;;;;;8.55;5.13;;;28.70;94.70;;;;;;5058677;28;20044;-70
2022/08/07 04:51:44;;;;;;;12.70;6.07;;;28.80;94.40;;;;;;5074915;28;20097;-73
2022/08/07 04:54:46;;;;;;;7.18;5.00;;;28.80;94.20;;;;;;5074827;28;20046;-71
2022/08/07 04:57:59;;;;;;;7.57;5.57;;;29.00;94.00;;;;;;5074876;28;20093;-71
2022/08/07 05:01:06;;;;;;;7.50;4.82;;;29.10;93.80;;;;;;5006262;28;20060;-71
2022/08/07 05:04:31;;;;;;;7.63;5.50;;;29.20;93.50;;;;;;5073306;28;20040;-71
2022/08/07 05:07:13;;;;;;;6.70;4.97;;;29.30;93.30;;;;;;5016106;28;20044;-71
2022/08/07 05:10:02;;;;;;;8.88;5.30;;;29.50;93.10;;;;;;5038107;28;20055;-72
2022/08/07 05:12:43;;;;;;;8.60;5.60;;;29.60;92.90;;;;;;5021788;28;20063;-71
2022/08/07 05:15:17;;;;;;;12.30;6.10;;;29.70;92.80;;;;;;5072301;28;20040;-71
2022/08/07 05:17:48;;;;;;;7.20;5.47;;;29.80;92.50;;;;;;5072079;28;20052;-72
2022/08/07 05:20:23;;;;;;;9.43;5.25;;;29.90;92.30;;;;;;5054172;28;20501;-73
2022/08/07 05:22:56;;;;;;;13.75;5.65;;;30.00;92.10;;;;;;5038185;28;20513;-71
2022/08/07 05:25:27;;;;;;;8.00;4.70;;;30.10;91.90;;;;;;5037892;28;20064;-72
2022/08/07 05:27:56;;;;;;;10.15;5.88;;;30.20;91.70;;;;;;5017578;28;20110;-71
2022/08/07 05:30:25;;;;;;;12.10;6.50;;;30.30;91.50;;;;;;5034789;28;20479;-71
2022/08/07 05:32:54;;;;;;;9.45;4.70;;;30.40;91.40;;;;;;5034519;28;20047;-72
2022/08/07 05:35:23;;;;;;;7.50;5.38;;;30.50;91.30;;;;;;5034179;28;20037;-72
2022/08/07 05:37:52;;;;;;;6.65;5.45;;;30.60;91.30;;;;;;5033209;28;20048;-71
2022/08/07 05:40:21;;;;;;;8.68;5.40;;;30.60;91.10;;;;;;5017830;28;20048;-71
2022/08/07 05:42:49;;;;;;;8.43;4.97;;;30.70;91.10;;;;;;5017395;28;20056;-71
2022/08/07 05:45:19;;;;;;;6.90;4.88;;;30.80;91.10;;;;;;5017725;28;20077;-71
2022/08/07 05:47:47;;;;;;;7.82;5.78;;;31.00;91.10;;;;;;5050723;28;20495;-71
2022/08/07 05:50:16;;;;;;;7.65;5.28;;;31.00;91.20;;;;;;5017270;28;20060;-71
2022/08/07 05:52:44;;;;;;;11.82;5.68;;;31.10;91.40;;;;;;5017676;28;20080;-71
2022/08/07 05:55:12;;;;;;;7.75;5.82;;;31.10;91.50;;;;;;5017232;28;20506;-72
2022/08/07 05:57:45;;;;;;;10.15;5.50;;;31.20;91.60;;;;;;5049651;28;20049;-71
2022/08/07 06:00:15;;;;;;;5.43;4.53;;;31.30;91.60;;;;;;5030417;28;20403;-71
2022/08/07 06:02:54;;;;;;;10.38;5.32;;;31.40;91.70;;;;;;5035159;28;20041;-72
2022/08/07 06:05:27;;;;;;;8.38;6.18;;;31.50;91.60;;;;;;5033709;28;20045;-72
2022/08/07 06:08:00;;;;;;;7.72;5.03;;;31.60;91.50;;;;;;5049925;28;20458;-72
2022/08/07 06:10:31;;;;;;;11.77;4.75;;;31.70;91.40;;;;;;5034204;28;20075;-71
2022/08/07 06:13:00;;;;;;;7.13;4.82;;;31.80;91.30;;;;;;5033845;28;20086;-72
2022/08/07 06:15:29;;;;;;;11.00;5.95;;;31.90;91.30;;;;;;5033760;28;20510;-71
2022/08/07 06:17:58;;;;;;;9.30;5.35;;;32.00;91.20;;;;;;5049736;28;20041;-71
2022/08/07 06:20:26;;;;;;;12.43;5.60;;;32.10;91.20;;;;;;5033005;28;20064;-70
2022/08/07 06:22:55;;;;;;;6.72;5.90;;;32.20;91.10;;;;;;5049647;28;20057;-72
2022/08/07 06:25:34;;;;;;;10.05;6.78;;;32.40;91.00;;;;;;5034658;28;20463;-73
2022/08/07 06:28:09;;;;;;;8.90;6.32;;;32.50;90.50;;;;;;5036604;28;20406;-71
2022/08/07 06:30:38;;;;;;;7.55;5.38;;;32.60;90.40;;;;;;5053252;28;20032;-69
2022/08/07 06:33:12;;;;;;;;;;;32.60;90.40;;;;;;5053572;28;20497;-69
2022/08/07 06:35:40;;;;;;;9.27;6.60;;;32.60;90.30;;;;;;5053146;28;19924;-71
2022/08/07 06:38:07;;;;;;;8.43;6.47;;;32.70;90.50;;;;;;5020237;28;20105;-70
2022/08/07 06:40:52;;;;;;;9.65;6.35;;;32.80;90.60;;;;;;5053001;28;20129;-69
2022/08/07 06:43:23;;;;;;;7.20;6.15;;;32.90;90.50;;;;;;5020186;28;20048;-70
2022/08/07 06:46:04;;;;;;;8.63;5.85;;;33.00;90.20;;;;;;5036114;28;20590;-69
2022/08/07 06:48:34;;;;;;;8.25;6.18;;;33.20;90.20;;;;;;5052049;28;20120;-70
2022/08/07 06:51:07;;;;;;;6.40;5.72;;;33.30;90.10;;;;;;5035840;28;20135;-70
2022/08/07 06:53:39;;;;;;;6.45;5.40;;;33.30;89.60;;;;;;5036876;28;20143;-70
2022/08/07 06:56:15;;;;;;;6.53;5.30;;;33.20;89.20;;;;;;5031673;28;20067;-73
2022/08/07 06:58:48;;;;;;;7.13;5.20;;;33.20;89.30;;;;;;5040352;28;20048;-70
2022/08/07 07:01:16;;;;;;;6.88;5.68;;;33.30;88.10;;;;;;5039903;28;20375;-71
2022/08/07 07:03:44;;;;;;;10.68;5.20;;;33.40;87.30;;;;;;5055799;28;20048;-70
2022/08/07 07:06:12;;;;;;;10.13;5.78;;;33.50;86.50;;;;;;5072521;28;20063;-72
2022/08/07 07:08:39;;;;;;;7.93;5.80;;;33.60;86.60;;;;;;5072501;28;20040;-71
2022/08/07 07:11:07;;;;;;;6.93;5.68;;;33.70;86.20;;;;;;5056156;28;20506;-71
2022/08/07 07:13:39;;;;;;;7.53;5.65;;;33.80;86.50;;;;;;5056101;28;20044;-70
2022/08/07 07:16:13;;;;;;;8.88;5.57;;;33.80;86.60;;;;;;5039059;28;20059;-70
2022/08/07 07:18:50;;;;;;;8.70;5.43;;;33.90;86.30;;;;;;5055976;28;20062;-70
2022/08/07 07:21:31;;;;;;;9.60;5.47;;;33.90;86.30;;;;;;5072639;28;20040;-71
2022/08/07 07:23:59;;;;;;;15.75;6.15;;;34.00;86.20;;;;;;5055773;28;20142;-71
2022/08/07 07:26:31;;;;;;;5.88;4.95;;;34.10;85.70;;;;;;5055808;28;20060;-70
2022/08/07 07:29:09;;;;;;;9.68;6.63;;;34.20;85.20;;;;;;5056545;28;20390;-70
2022/08/07 07:31:43;;;;;;;8.07;5.85;;;34.30;85.00;;;;;;5072587;28;20037;-71
2022/08/07 07:34:16;;;;;;;7.40;5.53;;;34.30;85.20;;;;;;5090186;28;20135;-70
2022/08/07 07:36:45;;;;;;;5.90;5.30;;;34.40;84.90;;;;;;5039707;28;20060;-70
2022/08/07 07:39:14;;;;;;;12.75;5.70;;;34.50;85.10;;;;;;5072536;28;20040;-71
2022/08/07 07:41:47;;;;;;;7.68;5.47;;;34.50;84.90;;;;;;5072155;28;20084;-70
2022/08/07 07:44:17;;;;;;;7.40;5.38;;;34.60;84.50;;;;;;5055738;28;20040;-71
2022/08/07 07:46:49;;;;;;;8.07;5.53;;;34.60;84.60;;;;;;5090089;28;20124;-70
2022/08/07 07:49:19;;;;;;;9.25;5.88;;;34.60;83.80;;;;;;5039462;28;20141;-70
2022/08/07 07:51:48;;;;;;;7.55;5.53;;;34.60;83.40;;;;;;5055437;28;20052;-71
2022/08/07 07:54:17;;;;;;;6.45;5.00;;;34.70;83.50;;;;;;5057886;28;20061;-70
2022/08/07 07:56:46;;;;;;;10.13;6.18;;;34.80;83.60;;;;;;5033140;28;20055;-72
2022/08/07 07:59:15;;;;;;;8.07;5.65;;;34.90;83.30;;;;;;5075311;28;20032;-72
2022/08/07 08:01:47;;;;;;;6.95;5.55;;;34.90;82.90;;;;;;5056922;28;20040;-72
2022/08/07 08:04:17;;;;;;;9.02;5.65;;;34.90;82.10;;;;;;5075333;28;20533;-70
2022/08/07 08:06:46;;;;;;;7.22;5.78;;;34.90;82.40;;;;;;5075832;28;20406;-71
2022/08/07 08:09:17;;;;;;;9.77;5.63;;;34.90;82.00;;;;;;5052801;28;20384;-71
2022/08/07 08:11:46;;;;;;;7.50;5.57;;;35.00;81.70;;;;;;5044241;28;20037;-70
2022/08/07 08:14:15;;;;;;;7.95;6.18;;;35.10;82.10;;;;;;5046621;28;20182;-71
2022/08/07 08:16:45;;;;;;;7.95;5.95;;;35.00;81.50;;;;;;5086399;28;20134;-71
2022/08/07 08:19:16;;;;;;;6.47;5.45;;;35.00;81.10;;;;;;5066805;28;20079;-71
2022/08/07 08:27:37;;;;;;;7.90;5.80;;;35.20;81.10;;;;;;5091688;28;20056;-71
2022/08/07 08:30:08;;;;;;;8.05;5.72;;;35.20;81.40;;;;;;5057881;28;20052;-73
2022/08/07 08:32:40;;;;;;;10.32;6.20;;;35.20;80.20;;;;;;5062045;28;20051;-74
2022/08/07 08:35:12;;;;;;;10.48;5.63;;;35.20;79.00;;;;;;5080694;28;20072;-71
2022/08/07 08:37:44;;;;;;;6.35;5.72;;;35.40;79.50;;;;;;5067447;28;20049;-70
2022/08/07 08:40:21;;;;;;;6.40;5.70;;;35.20;77.30;;;;;;5038472;28;20143;-70
2022/08/07 08:42:56;;;;;;;13.98;6.40;;;35.10;78.70;;;;;;5045151;28;20044;-72
2022/08/07 08:45:34;;;;;;;9.10;6.28;;;35.20;78.50;;;;;;5069541;28;20051;-71
2022/08/07 08:48:38;;;;;;;12.57;5.88;;;35.20;77.80;;;;;;5050069;28;20059;-71
2022/08/07 08:51:17;;;;;;;8.70;5.57;;;35.30;77.00;;;;;;4959053;28;20307;-71
2022/08/07 08:54:03;;;;;;;8.27;5.93;;;35.30;77.30;;;;;;5005132;28;20204;-73
2022/08/07 08:56:37;;;;;;;8.13;4.88;;;35.30;77.30;;;;;;5031591;28;20055;-71
2022/08/07 08:59:11;;;;;;;9.60;5.13;;;35.40;76.50;;;;;;4998594;28;20044;-69
2022/08/07 09:01:53;;;;;;;7.22;5.20;;;35.20;76.80;;;;;;5031164;28;20036;-75
2022/08/07 09:04:27;;;;;;;9.65;5.95;;;35.20;76.70;;;;;;4950407;28;20233;-76
2022/08/07 09:07:50;;;;;;;6.57;5.88;;;35.30;76.90;;;;;;4927921;28;20043;-76
2022/08/07 09:27:39;;;;;;;8.38;6.07;;;35.20;75.00;;;;;;5106958;27;20428;-70
2022/08/07 09:30:10;;;;;;;6.50;5.55;;;35.20;73.10;;;;;;5103424;28;20126;-71
2022/08/07 09:33:03;;;;;;;7.18;5.40;;;35.20;72.90;;;;;;5082157;28;20036;-71
2022/08/07 09:35:37;;;;;;;7.65;5.28;;;35.20;73.30;;;;;;5117365;27;20101;-71
2022/08/07 09:38:10;;;;;;;11.02;6.18;;;35.30;73.50;;;;;;5105588;28;20059;-72
2022/08/07 09:40:53;;;;;;;6.47;5.25;;;35.20;72.60;;;;;;5098966;28;20036;-71
2022/08/07 09:43:27;;;;;;;8.02;5.85;;;35.20;71.80;;;;;;5095892;28;20032;-71
2022/08/07 09:46:13;;;;;;;8.20;5.50;;;35.20;72.30;;;;;;5099346;28;20032;-72
2022/08/07 09:48:59;;;;;;;6.10;4.75;;;35.30;71.90;;;;;;5086390;28;20040;-71
2022/08/07 09:52:15;;;;;;;6.50;4.90;;;35.40;70.60;;;;;;5072693;28;20044;-71
2022/08/07 09:54:54;;;;;;;6.22;4.47;;;35.50;70.50;;;;;;5068031;28;20154;-73
2022/08/07 09:57:52;;;;;;;8.50;4.90;;;35.70;69.80;;;;;;5087729;28;20047;-71
2022/08/07 10:00:25;;;;;;;7.93;4.95;;;35.60;68.90;;;;;;5088620;28;20051;-71
2022/08/07 10:03:26;;;;;;;7.82;5.53;;;35.70;69.10;;;;;;5070795;28;20040;-71
2022/08/07 10:06:19;;;;;;;6.78;4.63;;;35.90;69.20;;;;;;5069709;28;20438;-72
2022/08/07 10:08:54;;;;;;;5.93;4.07;;;35.70;68.30;;;;;;5071139;28;20447;-72
2022/08/07 10:11:27;;;;;;;5.43;4.45;;;35.60;67.30;;;;;;5088181;28;20432;-71
2022/08/07 10:14:08;;;;;;;7.25;4.88;;;35.60;68.50;;;;;;5071543;28;20047;-71
2022/08/07 10:17:02;;;;;;;5.75;4.78;;;35.50;68.40;;;;;;5055796;28;20040;-71
2022/08/07 10:19:38;;;;;;;6.95;4.80;;;35.40;67.50;;;;;;5072166;28;20138;-71
2022/08/07 10:22:19;;;;;;;6.15;4.55;;;35.40;68.10;;;;;;5071936;28;20126;-71
2022/08/07 10:24:56;;;;;;;9.93;4.95;;;35.40;68.00;;;;;;5088678;28;20051;-72
2022/08/07 10:27:37;;;;;;;8.63;4.97;;;35.40;67.80;;;;;;5063928;28;20041;-71
2022/08/07 10:30:40;;;;;;;5.75;5.15;;;35.50;67.70;;;;;;5075398;28;20048;-71
2022/08/07 10:33:26;;;;;;;5.15;4.30;;;35.60;68.80;;;;;;5067249;28;20036;-71
2022/08/07 10:36:22;;;;;;;6.68;4.85;;;35.60;67.80;;;;;;5076365;28;20061;-71
2022/08/07 10:39:01;;;;;;;6.00;4.90;;;35.50;67.60;;;;;;5075091;28;20378;-71
2022/08/07 10:41:41;;;;;;;6.45;4.80;;;35.60;69.60;;;;;;5076350;28;20062;-71
2022/08/07 10:44:51;;;;;;;8.68;4.47;;;35.60;69.50;;;;;;5075008;28;20040;-71
2022/08/07 10:47:37;;;;;;;6.43;4.78;;;35.50;68.70;;;;;;5037385;28;20056;-71
2022/08/07 10:50:18;;;;;;;6.25;5.38;;;35.50;67.90;;;;;;5074656;28;20135;-71
2022/08/07 10:53:22;;;;;;;6.18;5.07;;;35.60;69.10;;;;;;5058251;28;20048;-71
2022/08/07 10:56:04;;;;;;;7.43;4.97;;;35.70;69.20;;;;;;5074306;28;20144;-71
2022/08/07 10:58:32;;;;;;;7.05;5.20;;;35.70;68.50;;;;;;5074670;28;20171;-71
2022/08/07 11:01:08;;;;;;;6.65;5.03;;;35.60;69.00;;;;;;5074663;28;20040;-71
2022/08/07 11:03:50;;;;;;;6.68;4.32;;;35.60;69.20;;;;;;5074670;28;20048;-72
2022/08/07 11:06:24;;;;;;;;;;;35.70;69.70;;;;;;5074798;28;20075;-71
2022/08/07 11:09:02;;;;;;;6.88;5.28;;;35.60;70.50;;;;;;5058039;28;19928;-71
2022/08/07 11:11:42;;;;;;;8.80;5.20;;;35.70;70.20;;;;;;5074346;28;20059;-71
2022/08/07 11:14:36;;;;;;;6.80;5.30;;;35.60;70.50;;;;;;5074417;28;20539;-71
2022/08/07 11:17:13;;;;;;;9.88;5.38;;;35.80;70.00;;;;;;5057714;28;20047;-71
2022/08/07 11:20:06;;;;;;;6.05;5.13;;;35.70;69.80;;;;;;5074421;28;20041;-71
2022/08/07 11:23:12;;;;;;;10.30;5.53;;;35.70;69.40;;;;;;5057788;28;20490;-71
2022/08/07 11:26:40;;;;;;;5.68;5.07;;;35.60;69.10;;;;;;5073798;28;20063;-71
2022/08/07 11:29:35;;;;;;;7.45;4.68;;;35.60;69.80;;;;;;5036462;28;20079;-71
2022/08/07 11:32:28;;;;;;;7.35;5.43;;;35.60;67.40;;;;;;5036667;28;20135;-71
2022/08/07 11:35:08;;;;;;;9.55;5.72;;;35.60;69.20;;;;;;5071667;28;20048;-71
2022/08/07 11:37:49;;;;;;;6.72;5.95;;;35.60;69.30;;;;;;5073882;28;20029;-71
2022/08/07 11:40:50;;;;;;;9.50;6.00;;;35.70;69.70;;;;;;5073386;28;20032;-71
2022/08/07 11:43:26;;;;;;;7.10;5.50;;;35.60;69.70;;;;;;5075077;28;20083;-71
2022/08/07 11:46:08;;;;;;;;;;;35.60;69.70;;;;;;5074055;28;20127;-71
2022/08/07 11:49:01;;;;;;;6.00;5.07;;;35.50;69.50;;;;;;5073908;28;19927;-72
2022/08/07 11:52:08;;;;;;;8.10;5.90;;;35.60;68.60;;;;;;5073619;28;20053;-71
2022/08/07 11:54:59;;;;;;;7.32;6.20;;;35.60;68.80;;;;;;5073918;28;20371;-72
2022/08/07 11:57:41;;;;;;;6.78;5.10;;;35.60;67.90;;;;;;5073397;28;20063;-71
2022/08/07 12:00:14;;;;;;;7.60;6.03;;;35.60;67.10;;;;;;5073460;28;20044;-71
2022/08/07 12:03:09;;;;;;;6.88;5.28;;;35.70;66.90;;;;;;5056586;28;20036;-71
2022/08/07 12:05:46;;;;;;;7.37;5.57;;;35.60;66.50;;;;;;5073133;28;20036;-72
2022/08/07 12:08:33;;;;;;;7.82;5.00;;;35.60;65.20;;;;;;5074479;28;20044;-71
2022/08/07 12:11:17;;;;;;;8.23;5.35;;;35.60;64.90;;;;;;5057226;28;20539;-72
2022/08/07 12:14:02;;;;;;;7.97;5.70;;;35.60;64.60;;;;;;5073094;28;20072;-71
2022/08/07 12:17:01;;;;;;;7.03;5.13;;;35.60;64.50;;;;;;5073193;28;20089;-71
2022/08/07 12:19:39;;;;;;;10.82;5.75;;;35.40;64.10;;;;;;5074032;28;20051;-71
2022/08/07 12:22:25;;;;;;;8.48;5.43;;;35.40;64.70;;;;;;5074118;28;20047;-71
2022/08/07 12:28:00;;;;;;;8.10;5.77;;;35.50;65.20;;;;;;5056626;28;19924;-71
2022/08/07 12:30:33;;;;;;;13.07;6.35;;;35.50;65.50;;;;;;5073329;28;20441;-72
2022/08/07 12:33:11;;;;;;;6.72;5.28;;;35.40;64.00;;;;;;5056710;28;20449;-71
2022/08/07 12:35:40;;;;;;;8.60;5.57;;;35.10;63.20;;;;;;5073927;28;20049;-72
2022/08/07 12:38:10;;;;;;;8.07;6.18;;;35.10;63.20;;;;;;5072689;28;20546;-72
2022/08/07 12:40:43;;;;;;;9.20;5.90;;;35.20;63.40;;;;;;5056630;28;20403;-71
2022/08/07 12:43:13;;;;;;;9.93;5.97;;;35.10;63.10;;;;;;5072720;28;20051;-71
2022/08/07 12:46:21;;;;;;;8.80;6.13;;;35.10;63.00;;;;;;5072505;28;20040;-71
2022/08/07 12:49:08;;;;;;;8.52;5.68;;;35.10;63.30;;;;;;5073934;28;20048;-72
2022/08/07 12:51:41;;;;;;;6.85;6.15;;;35.00;62.90;;;;;;5073619;28;20048;-72
2022/08/07 12:54:28;;;;;;;6.85;5.07;;;35.10;63.00;;;;;;5072541;28;20037;-71
2022/08/07 12:56:58;;;;;;;7.97;5.82;;;35.00;62.30;;;;;;5073004;28;20044;-72
2022/08/07 12:59:30;;;;;;;15.02;6.07;;;35.00;62.50;;;;;;5056127;28;20511;-72
2022/08/07 13:02:26;;;;;;;6.72;5.60;;;35.20;62.80;;;;;;5073867;28;20055;-71
2022/08/07 13:05:17;;;;;;;9.02;5.07;;;35.10;62.00;;;;;;5072339;28;20040;-72
2022/08/07 13:08:15;;;;;;;9.55;5.50;;;35.10;61.10;;;;;;5072395;28;20494;-71
2022/08/07 13:10:46;;;;;;;6.70;5.55;;;35.00;61.20;;;;;;5073552;28;20074;-72
2022/08/07 13:13:28;;;;;;;6.57;5.05;;;35.00;61.70;;;;;;5073490;28;20036;-72
2022/08/07 13:16:09;;;;;;;6.68;4.90;;;35.00;61.20;;;;;;5056005;28;20083;-72
2022/08/07 13:18:48;;;;;;;9.35;5.07;;;35.10;60.80;;;;;;5072293;28;20559;-72
2022/08/07 13:21:33;;;;;;;5.72;4.97;;;35.20;60.90;;;;;;5072417;28;20057;-71
2022/08/07 13:24:19;;;;;;;6.47;4.63;;;35.30;60.80;;;;;;5055720;28;20056;-71
2022/08/07 13:26:52;;;;;;;7.32;4.45;;;35.20;60.80;;;;;;5055240;28;20052;-72
2022/08/07 13:29:32;;;;;;;5.50;4.93;;;35.30;60.80;;;;;;5056036;28;20051;-71
2022/08/07 13:32:17;;;;;;;9.10;5.13;;;35.20;60.50;;;;;;5055975;28;20044;-72
2022/08/07 13:34:53;;;;;;;8.65;4.88;;;35.20;60.70;;;;;;5072366;28;20044;-72
2022/08/07 13:37:57;;;;;;;5.55;4.47;;;35.20;60.50;;;;;;5072613;28;20049;-71
2022/08/07 13:40:53;;;;;;;7.93;4.63;;;35.20;60.20;;;;;;5072011;28;20090;-72
2022/08/07 13:43:21;;;;;;;;;;;35.20;60.00;;;;;;5055786;28;20044;-72
2022/08/07 13:45:54;;;;;;;5.93;4.78;;;35.00;60.20;;;;;;5072045;28;19981;-72
2022/08/07 13:48:24;;;;;;;5.00;4.25;;;35.10;60.00;;;;;;5072203;28;20557;-71
2022/08/07 13:50:53;;;;;;;6.80;4.57;;;35.10;60.10;;;;;;5071942;28;20033;-72
2022/08/07 13:53:25;;;;;;;5.90;4.35;;;35.10;59.80;;;;;;5072137;28;20059;-72
2022/08/07 13:55:55;;;;;;;6.55;5.05;;;35.00;60.00;;;;;;5055578;28;20076;-71
2022/08/07 14:01:16;;;;;;;5.93;4.28;;;35.00;60.40;;;;;;5072047;28;20071;-72